Pays
Station

 

Conditions  météo  pour  Egilsstadir  -  Islande    Islande

  
9 °C
    
 
 

METAR pour Egilsstadir :

BIEG 160400Z 08007KT 9999 -RA SCT025 BKN034 OVC042 09/06 Q1003 R04/290195 RMK WIND GAGNHEIDI 09020G33KT

 

Voici le bulletin pour Egilsstadir - Islande.
 
Le bulletin a été fait il y a 29 minutes, à 04:00 UTC .
Le vent soufflait à la vitesse de 3.6 mètres par seconde de Est (080°).
 
La température était de 9 °C, avec un point de rosée à 6 °C.
La pression atmosphérique était de 1003 hPa.
L'humidité relative était de 81.5%.
 
Il y avait 3 à 4/8ème de nébulosité à une hauteur de 762 mètres et 5 à 7/8ème de nébulosité à une hauteur de 1036 mètres. Le ciel était nuageux à partir d'une hauteur de 1280 mètres
 
La visibilité globale était de supérieure à 10 kilomètres.
 
Actuellement léger/legère pluie.

 
 
 

Pays :   A   B   C   D   E   F   G   H   I   J   K   L   M   N   O   P   Q   R   S   T   U   V   W   Y   Z

 

Partenaires :  Info Météo avec Met'info
Météo Marine avec MeteoMarine.net
Infos Site  |  Infos Légales  |  Crédits  |  Confidentialité
Contactez-nous  |  Ajouter aux favoris
© 2013-2019 METAR - Tous droits réservés